createdAt,value
2023-01-18T00:00:40.392Z,96733.09
2023-01-18T00:03:11.260Z,96740.09
2023-01-18T00:05:41.078Z,96738.50
2023-01-18T00:08:12.932Z,96740.69
2023-01-18T00:10:40.064Z,96736.09
2023-01-18T00:13:07.978Z,96734.19
2023-01-18T00:15:38.050Z,96743.88
2023-01-18T00:18:05.126Z,96749.50
2023-01-18T00:20:32.164Z,96749.00
2023-01-18T00:23:02.511Z,96749.56
2023-01-18T00:25:30.370Z,96743.78
2023-01-18T00:27:57.376Z,96748.59
2023-01-18T00:30:28.200Z,96751.56
2023-01-18T00:32:59.232Z,96759.34
2023-01-18T00:35:26.714Z,96753.53
2023-01-18T00:37:54.195Z,96744.09
2023-01-18T00:40:22.939Z,96744.66
2023-01-18T00:43:08.133Z,96752.97
2023-01-18T00:45:34.748Z,96747.44
2023-01-18T00:48:02.636Z,96756.50
2023-01-18T00:50:29.542Z,96750.69
2023-01-18T00:52:58.792Z,96755.50
2023-01-18T00:55:26.481Z,96759.25
2023-01-18T00:57:53.089Z,96762.13
2023-01-18T01:00:20.401Z,96763.38
2023-01-18T01:02:47.022Z,96764.97
2023-01-18T01:05:41.035Z,96770.28
2023-01-18T01:08:07.803Z,96771.25
2023-01-18T01:10:35.172Z,96776.00
2023-01-18T01:13:20.282Z,96776.50
2023-01-18T01:16:05.764Z,96783.06
2023-01-18T01:18:50.528Z,96787.00
2023-01-18T01:21:35.542Z,96790.75
2023-01-18T01:24:20.998Z,96795.59
2023-01-18T01:26:47.549Z,96794.50
2023-01-18T01:29:14.167Z,96790.75
2023-01-18T01:31:40.902Z,96790.75
2023-01-18T01:34:07.545Z,96799.81
2023-01-18T01:36:34.387Z,96800.41
2023-01-18T01:39:01.176Z,96797.28
2023-01-18T01:41:31.226Z,96804.75
2023-01-18T01:44:24.490Z,96805.31
2023-01-18T01:47:04.245Z,96807.69
2023-01-18T01:49:40.101Z,96815.94
2023-01-18T01:52:15.409Z,96821.56
2023-01-18T01:54:53.574Z,96827.16
2023-01-18T01:57:24.233Z,96829.22
2023-01-18T01:59:59.891Z,96831.34
2023-01-18T02:02:27.586Z,96834.00
2023-01-18T02:04:55.538Z,96840.06
2023-01-18T02:07:23.987Z,96835.84
2023-01-18T02:09:52.500Z,96841.97
2023-01-18T02:12:19.738Z,96844.53
2023-01-18T02:14:46.615Z,96842.34
2023-01-18T02:17:16.252Z,96852.97
2023-01-18T02:20:07.799Z,96853.84
2023-01-18T02:22:59.677Z,96861.63
2023-01-18T02:25:41.644Z,96856.50
2023-01-18T02:28:17.175Z,96862.81
2023-01-18T02:30:51.939Z,96869.91
2023-01-18T02:33:36.507Z,96861.44
2023-01-18T02:36:05.189Z,96867.53
2023-01-18T02:38:41.407Z,96864.69
2023-01-18T02:41:52.954Z,96870.13
2023-01-18T02:44:47.384Z,96876.50
2023-01-18T02:47:14.550Z,96883.19
2023-01-18T02:49:42.032Z,96893.03
2023-01-18T02:52:39.835Z,96887.81
2023-01-18T02:55:13.820Z,96898.66
2023-01-18T02:57:40.640Z,96903.16
2023-01-18T03:00:10.353Z,96904.75
2023-01-18T03:02:38.982Z,96905.75
2023-01-18T03:05:10.585Z,96905.16
2023-01-18T03:07:53.411Z,96907.50
2023-01-18T03:10:21.318Z,96913.03
2023-01-18T03:12:47.848Z,96913.81
2023-01-18T03:15:20.410Z,96918.94
2023-01-18T03:17:57.377Z,96915.50
2023-01-18T03:20:29.035Z,96909.69
2023-01-18T03:23:34.067Z,96920.41
2023-01-18T03:26:03.555Z,96919.09
2023-01-18T03:29:00.436Z,96915.78
2023-01-18T03:32:10.659Z,96924.63
2023-01-18T03:34:53.822Z,96933.66
2023-01-18T03:37:29.814Z,96943.81
2023-01-18T03:40:06.984Z,96942.72
2023-01-18T03:43:14.258Z,96942.72
2023-01-18T03:45:45.937Z,96953.84
2023-01-18T03:48:13.317Z,96956.50
2023-01-18T03:50:51.855Z,96964.47
2023-01-18T03:53:41.568Z,96960.25
2023-01-18T03:56:20.596Z,96970.06
2023-01-18T03:58:51.377Z,96970.88
2023-01-18T04:01:18.362Z,96977.25
2023-01-18T04:03:45.026Z,96983.66
2023-01-18T04:06:11.749Z,96990.06
2023-01-18T04:08:38.377Z,96989.25
2023-01-18T04:11:05.031Z,96994.38
2023-01-18T04:13:31.584Z,96998.09
2023-01-18T04:15:58.207Z,97005.06
2023-01-18T04:18:25.954Z,96997.38
2023-01-18T04:20:56.408Z,97005.63
2023-01-18T04:23:24.109Z,97010.44
2023-01-18T04:25:51.754Z,97011.53
2023-01-18T04:28:25.439Z,97017.91
2023-01-18T04:30:57.024Z,97022.75
2023-01-18T04:33:26.835Z,97023.81
2023-01-18T04:35:56.532Z,97026.47
2023-01-18T04:38:23.588Z,97028.63
2023-01-18T04:40:50.849Z,97027.06
2023-01-18T04:43:18.021Z,97029.19
2023-01-18T04:45:56.561Z,97035.88
2023-01-18T04:48:23.765Z,97035.06
2023-01-18T04:50:50.669Z,97040.38
2023-01-18T04:53:18.156Z,97040.97
2023-01-18T04:55:45.933Z,97052.38
2023-01-18T04:58:12.688Z,97059.03
2023-01-18T05:00:42.296Z,97052.72
2023-01-18T05:03:11.016Z,97067.09
2023-01-18T05:05:37.770Z,97068.75
2023-01-18T05:08:04.564Z,97066.66
2023-01-18T05:10:33.608Z,97073.03
2023-01-18T05:13:00.789Z,97074.13
2023-01-18T05:15:27.705Z,97078.94
2023-01-18T05:17:54.254Z,97090.59
2023-01-18T05:20:20.846Z,97079.78
2023-01-18T05:22:47.414Z,97084.84
2023-01-18T05:25:14.023Z,97095.25
2023-01-18T05:27:40.659Z,97099.78
2023-01-18T05:30:08.798Z,97100.84
2023-01-18T05:32:35.604Z,97105.91
2023-01-18T05:35:03.733Z,97118.41
2023-01-18T05:37:30.363Z,97121.63
2023-01-18T05:39:57.400Z,97129.59
2023-01-18T05:42:24.025Z,97128.53
2023-01-18T05:44:50.584Z,97132.75
2023-01-18T05:47:17.159Z,97137.50
2023-01-18T05:49:43.694Z,97137.00
2023-01-18T05:52:10.373Z,97149.75
2023-01-18T05:54:36.970Z,97146.09
2023-01-18T05:57:03.819Z,97145.53
2023-01-18T05:59:30.410Z,97142.16
2023-01-18T06:01:57.037Z,97143.88
2023-01-18T06:04:23.678Z,97152.69
2023-01-18T06:06:50.264Z,97158.44
2023-01-18T06:09:17.427Z,97155.66
2023-01-18T06:11:44.014Z,97161.78
2023-01-18T06:14:10.574Z,97177.13
2023-01-18T06:16:37.174Z,97179.00
2023-01-18T06:19:03.732Z,97188.16
2023-01-18T06:21:30.321Z,97191.06
2023-01-18T06:23:56.893Z,97195.00
2023-01-18T06:26:23.944Z,97212.16
2023-01-18T06:28:50.534Z,97207.75
2023-01-18T06:31:17.201Z,97219.03
2023-01-18T06:33:43.796Z,97213.53
2023-01-18T06:36:10.340Z,97223.72
2023-01-18T06:38:36.975Z,97221.97
2023-01-18T06:41:03.577Z,97230.84
2023-01-18T06:43:30.215Z,97234.13
2023-01-18T06:45:57.702Z,97241.91
2023-01-18T06:48:25.174Z,97237.72
2023-01-18T06:50:52.704Z,97233.53
2023-01-18T06:53:22.669Z,97241.28
2023-01-18T06:55:57.085Z,97243.69
2023-01-18T06:58:25.831Z,97249.56
2023-01-18T07:01:00.557Z,97258.09
2023-01-18T07:03:28.892Z,97272.69
2023-01-18T07:06:00.359Z,97270.31
2023-01-18T07:08:28.464Z,97281.50
2023-01-18T07:10:55.239Z,97289.75
2023-01-18T07:13:22.139Z,97295.81
2023-01-18T07:15:58.011Z,97296.38
2023-01-18T07:18:26.443Z,97298.78
2023-01-18T07:21:00.415Z,97301.44
2023-01-18T07:23:27.658Z,97309.91
2023-01-18T07:26:05.487Z,97313.34
2023-01-18T07:28:32.872Z,97327.38
2023-01-18T07:31:00.427Z,97328.13
2023-01-18T07:33:28.183Z,97343.00
2023-01-18T07:35:57.247Z,97350.41
2023-01-18T07:38:24.818Z,97343.47
2023-01-18T07:40:51.507Z,97345.28
2023-01-18T07:43:18.321Z,97355.59
2023-01-18T07:45:52.289Z,97359.28
2023-01-18T07:48:18.894Z,97359.78
2023-01-18T07:50:59.248Z,97361.38
2023-01-18T07:53:26.965Z,97361.84
2023-01-18T07:55:54.341Z,97367.66
2023-01-18T07:58:21.472Z,97381.66
2023-01-18T08:00:48.050Z,97376.59
2023-01-18T08:03:16.678Z,97380.56
2023-01-18T08:05:44.220Z,97387.09
2023-01-18T08:08:12.930Z,97390.53
2023-01-18T08:10:40.007Z,97392.91
2023-01-18T08:13:10.181Z,97396.59
2023-01-18T08:15:38.153Z,97400.50
2023-01-18T08:18:06.366Z,97404.94
2023-01-18T08:20:33.135Z,97402.78
2023-01-18T08:23:01.371Z,97412.81
2023-01-18T08:25:29.903Z,97422.31
2023-01-18T08:27:59.197Z,97429.75
2023-01-18T08:30:31.349Z,97428.13
2023-01-18T08:33:00.376Z,97425.44
2023-01-18T08:35:29.278Z,97437.38
2023-01-18T08:37:56.339Z,97443.44
2023-01-18T08:40:26.324Z,97443.16
2023-01-18T08:42:58.072Z,97450.34
2023-01-18T08:45:25.054Z,97462.13
2023-01-18T08:48:03.520Z,97468.44
2023-01-18T08:50:31.190Z,97467.88
2023-01-18T08:53:00.166Z,97471.28
2023-01-18T08:55:27.748Z,97476.28
2023-01-18T08:57:54.956Z,97476.75
2023-01-18T09:00:26.937Z,97470.00
2023-01-18T09:02:53.734Z,97488.88
2023-01-18T09:05:20.422Z,97498.38
2023-01-18T09:07:47.569Z,97499.13
2023-01-18T09:10:14.368Z,97503.00
2023-01-18T09:12:41.214Z,97500.50
2023-01-18T09:15:08.751Z,97506.09
2023-01-18T09:17:35.318Z,97509.25
2023-01-18T09:20:02.004Z,97523.06
2023-01-18T09:22:28.583Z,97519.63
2023-01-18T09:24:55.107Z,97524.09
2023-01-18T09:27:21.718Z,97523.88
2023-01-18T09:29:52.194Z,97516.16
2023-01-18T09:32:22.046Z,97525.47
2023-01-18T09:34:50.714Z,97528.84
2023-01-18T09:37:19.076Z,97532.25
2023-01-18T09:39:51.855Z,97544.72
2023-01-18T09:42:24.936Z,97548.88
2023-01-18T09:44:55.427Z,97547.75
2023-01-18T09:47:27.356Z,97555.13
2023-01-18T09:50:02.448Z,97561.47
2023-01-18T09:52:43.997Z,97558.38
2023-01-18T09:55:19.652Z,97558.47
2023-01-18T09:57:58.470Z,97562.28
2023-01-18T10:00:28.798Z,97566.97
2023-01-18T10:03:01.267Z,97572.44
2023-01-18T10:05:33.334Z,97575.06
2023-01-18T10:08:02.792Z,97577.50
2023-01-18T10:10:44.134Z,97571.31
2023-01-18T10:13:47.207Z,97579.41
2023-01-18T10:16:15.317Z,97579.00
2023-01-18T10:18:48.210Z,97585.25
2023-01-18T10:21:44.194Z,97590.41
2023-01-18T10:24:32.252Z,97591.84
2023-01-18T10:27:24.120Z,97590.19
2023-01-18T10:30:15.103Z,97596.03
2023-01-18T10:32:52.227Z,97591.28
2023-01-18T10:35:31.343Z,97605.28
2023-01-18T10:38:03.345Z,97604.00
2023-01-18T10:40:29.843Z,97608.91
2023-01-18T10:43:04.062Z,97602.13
2023-01-18T10:45:33.730Z,97604.97
2023-01-18T10:48:20.477Z,97605.19
2023-01-18T10:50:52.331Z,97609.69
2023-01-18T10:53:33.319Z,97612.53
2023-01-18T10:56:07.341Z,97609.28
2023-01-18T10:58:45.755Z,97607.69
2023-01-18T11:01:22.542Z,97623.72
2023-01-18T11:03:53.040Z,97619.97
2023-01-18T11:06:20.997Z,97625.31
2023-01-18T11:08:49.779Z,97620.53
2023-01-18T11:11:19.077Z,97620.75
2023-01-18T11:13:48.460Z,97621.00
2023-01-18T11:16:23.172Z,97625.75
2023-01-18T11:19:04.459Z,97621.16
2023-01-18T11:21:42.688Z,97622.38
2023-01-18T11:24:16.102Z,97624.19
2023-01-18T11:27:23.332Z,97629.72
2023-01-18T11:29:50.600Z,97627.16
2023-01-18T11:32:26.993Z,97631.16
2023-01-18T11:34:56.141Z,97633.72
2023-01-18T11:37:35.567Z,97634.13
2023-01-18T11:40:20.654Z,97641.03
2023-01-18T11:42:50.594Z,97633.56
2023-01-18T11:45:46.192Z,97635.13
2023-01-18T11:48:30.707Z,97637.31
2023-01-18T11:50:58.638Z,97639.19
2023-01-18T11:54:02.802Z,97646.00
2023-01-18T11:56:47.710Z,97649.34
2023-01-18T11:59:31.114Z,97652.75
2023-01-18T12:02:35.386Z,97653.44
2023-01-18T12:05:07.794Z,97657.69
2023-01-18T12:07:53.955Z,97660.94
2023-01-18T12:10:34.096Z,97658.94
2023-01-18T12:13:21.003Z,97673.94
2023-01-18T12:16:03.056Z,97675.69
2023-01-18T12:18:47.974Z,97672.06
2023-01-18T12:21:21.219Z,97656.66
2023-01-18T12:24:07.064Z,97657.16
2023-01-18T12:26:47.334Z,97660.84
2023-01-18T12:29:36.529Z,97660.84
2023-01-18T12:32:12.268Z,97651.16
2023-01-18T12:34:47.017Z,97655.34
2023-01-18T12:37:26.006Z,97647.56
2023-01-18T12:40:11.066Z,97655.25
2023-01-18T12:43:04.067Z,97660.41
2023-01-18T12:45:39.092Z,97656.16
2023-01-18T12:48:09.017Z,97668.91
2023-01-18T12:50:38.523Z,97669.91
2023-01-18T12:53:16.280Z,97671.50
2023-01-18T12:55:46.819Z,97669.03
2023-01-18T12:58:19.135Z,97672.72
2023-01-18T13:00:52.149Z,97673.13
2023-01-18T13:03:25.152Z,97667.69
2023-01-18T13:06:00.093Z,97685.13
2023-01-18T13:08:52.322Z,97682.81
2023-01-18T13:11:27.066Z,97692.56
2023-01-18T13:14:07.168Z,97693.53
2023-01-18T13:16:52.422Z,97696.09
2023-01-18T13:19:24.808Z,97694.00
2023-01-18T13:22:06.613Z,97707.84
2023-01-18T13:24:39.849Z,97703.09
2023-01-18T13:27:08.952Z,97701.50
2023-01-18T13:29:35.984Z,97713.28
2023-01-18T13:32:03.182Z,97713.00
2023-01-18T13:34:34.673Z,97710.59
2023-01-18T13:37:14.586Z,97717.25
2023-01-18T13:39:47.815Z,97710.09
2023-01-18T13:42:14.320Z,97712.53
2023-01-18T13:44:44.431Z,97713.34
2023-01-18T13:47:46.752Z,97720.69
2023-01-18T13:50:28.607Z,97720.66
2023-01-18T13:53:25.291Z,97729.66
2023-01-18T13:55:54.597Z,97730.75
2023-01-18T13:58:28.343Z,97740.34
2023-01-18T14:00:58.574Z,97750.22
2023-01-18T14:03:28.606Z,97752.16
2023-01-18T14:05:57.401Z,97752.22
2023-01-18T14:08:29.181Z,97759.44
2023-01-18T14:11:10.109Z,97766.94
2023-01-18T14:13:45.785Z,97766.94
2023-01-18T14:16:16.657Z,97773.31
2023-01-18T14:18:51.557Z,97769.97
2023-01-18T14:21:24.535Z,97778.72
2023-01-18T14:24:08.673Z,97788.31
2023-01-18T14:26:37.954Z,97786.44
2023-01-18T14:29:12.147Z,97789.97
2023-01-18T14:31:43.011Z,97789.25
2023-01-18T14:34:30.918Z,97792.25
2023-01-18T14:36:58.130Z,97798.69
2023-01-18T14:39:25.370Z,97800.34
2023-01-18T14:41:56.496Z,97799.81
2023-01-18T14:44:26.747Z,97806.00
2023-01-18T14:46:58.217Z,97802.06
2023-01-18T14:49:38.741Z,97802.06
2023-01-18T14:52:08.687Z,97807.41
2023-01-18T14:54:35.523Z,97807.94
2023-01-18T14:57:04.219Z,97810.09
2023-01-18T14:59:32.137Z,97807.50
2023-01-18T15:02:01.998Z,97816.63
2023-01-18T15:04:31.198Z,97817.72
2023-01-18T15:07:03.751Z,97826.28
2023-01-18T15:09:36.903Z,97832.19
2023-01-18T15:12:07.715Z,97833.81
2023-01-18T15:14:43.118Z,97838.13
2023-01-18T15:17:21.369Z,97838.69
2023-01-18T15:19:54.541Z,97840.34
2023-01-18T15:22:27.224Z,97838.25
2023-01-18T15:24:57.520Z,97844.66
2023-01-18T15:27:24.078Z,97846.81
2023-01-18T15:29:53.867Z,97855.34
2023-01-18T15:32:27.079Z,97854.31
2023-01-18T15:34:55.710Z,97865.56
2023-01-18T15:37:29.483Z,97866.13
2023-01-18T15:40:03.664Z,97863.50
2023-01-18T15:42:38.718Z,97864.84
2023-01-18T15:45:16.911Z,97874.72
2023-01-18T15:47:48.756Z,97871.00
2023-01-18T15:50:24.463Z,97877.44
2023-01-18T15:53:06.108Z,97883.84
2023-01-18T15:55:35.109Z,97890.31
2023-01-18T15:58:11.665Z,97896.19
2023-01-18T16:00:53.227Z,97899.13
2023-01-18T16:03:30.433Z,97903.69
2023-01-18T16:06:07.872Z,97907.94
2023-01-18T16:08:35.184Z,97914.38
2023-01-18T16:11:01.847Z,97914.94
2023-01-18T16:13:37.770Z,97927.75
2023-01-18T16:16:16.171Z,97927.47
2023-01-18T16:18:46.511Z,97922.97
2023-01-18T16:21:21.000Z,97929.41
2023-01-18T16:23:49.820Z,97933.44
2023-01-18T16:26:24.277Z,97931.59
2023-01-18T16:28:51.839Z,97926.56
2023-01-18T16:31:20.939Z,97935.38
2023-01-18T16:33:47.622Z,97942.81
2023-01-18T16:36:17.996Z,97938.03
2023-01-18T16:38:45.041Z,97946.88
2023-01-18T16:41:12.928Z,97950.59
2023-01-18T16:43:39.498Z,97955.66
2023-01-18T16:46:06.362Z,97959.41
2023-01-18T16:48:34.156Z,97969.78
2023-01-18T16:51:01.421Z,97969.00
2023-01-18T16:53:29.018Z,97978.06
2023-01-18T16:55:56.753Z,97970.88
2023-01-18T16:58:24.087Z,97970.59
2023-01-18T17:01:11.395Z,97985.00
2023-01-18T17:03:39.560Z,97983.16
2023-01-18T17:06:06.881Z,97988.72
2023-01-18T17:08:33.658Z,97983.13
2023-01-18T17:11:00.223Z,97990.34
2023-01-18T17:13:27.087Z,97990.34
2023-01-18T17:15:53.703Z,98001.25
2023-01-18T17:18:25.612Z,98000.47
2023-01-18T17:20:52.776Z,98004.72
2023-01-18T17:23:19.601Z,98011.63
2023-01-18T17:25:46.501Z,98011.63
2023-01-18T17:28:15.610Z,98016.44
2023-01-18T17:30:44.122Z,98012.72
2023-01-18T17:33:21.166Z,98011.66
2023-01-18T17:35:49.197Z,98004.75
2023-01-18T17:38:23.337Z,98009.00
2023-01-18T17:40:51.168Z,98024.97
2023-01-18T17:43:28.381Z,98030.00
2023-01-18T17:46:01.976Z,98031.34
2023-01-18T17:48:28.965Z,98032.41
2023-01-18T17:50:55.543Z,98034.81
2023-01-18T17:53:22.097Z,98039.84
2023-01-18T17:55:48.660Z,98048.63
2023-01-18T17:58:15.359Z,98054.50
2023-01-18T18:00:42.077Z,98056.88
2023-01-18T18:03:09.228Z,98065.38
2023-01-18T18:05:36.111Z,98069.38
2023-01-18T18:08:02.792Z,98066.97
2023-01-18T18:10:29.394Z,98068.59
2023-01-18T18:12:55.992Z,98076.31
2023-01-18T18:15:23.504Z,98073.38
2023-01-18T18:17:50.097Z,98069.63
2023-01-18T18:20:17.242Z,98064.31
2023-01-18T18:22:43.965Z,98084.81
2023-01-18T18:25:10.709Z,98077.09
2023-01-18T18:27:45.205Z,98082.41
2023-01-18T18:30:13.080Z,98077.91
2023-01-18T18:32:39.775Z,98080.81
2023-01-18T18:35:19.455Z,98085.06
2023-01-18T18:37:51.035Z,98098.38
2023-01-18T18:40:17.844Z,98090.91
2023-01-18T18:42:49.957Z,98099.44
2023-01-18T18:45:27.152Z,98098.66
2023-01-18T18:47:53.827Z,98097.84
2023-01-18T18:50:20.512Z,98109.00
2023-01-18T18:52:47.262Z,98105.81
2023-01-18T18:55:14.045Z,98111.13
2023-01-18T18:57:40.702Z,98114.03
2023-01-18T19:00:08.123Z,98115.38
2023-01-18T19:02:35.350Z,98111.66
2023-01-18T19:05:02.245Z,98125.50
2023-01-18T19:07:29.151Z,98129.22
2023-01-18T19:09:55.796Z,98130.28
2023-01-18T19:12:22.526Z,98129.22
2023-01-18T19:14:49.347Z,98132.41
2023-01-18T19:17:28.940Z,98135.84
2023-01-18T19:19:56.751Z,98139.03
2023-01-18T19:22:23.524Z,98134.00
2023-01-18T19:24:50.083Z,98145.69
2023-01-18T19:27:16.839Z,98144.09
2023-01-18T19:29:43.999Z,98142.22
2023-01-18T19:32:10.640Z,98137.69
2023-01-18T19:34:41.178Z,98143.00
2023-01-18T19:37:08.263Z,98149.66
2023-01-18T19:39:35.023Z,98156.81
2023-01-18T19:42:02.422Z,98141.41
2023-01-18T19:44:30.735Z,98153.09
2023-01-18T19:46:57.448Z,98150.97
2023-01-18T19:49:27.337Z,98152.81
2023-01-18T19:51:54.787Z,98156.81
2023-01-18T19:54:21.961Z,98165.31
2023-01-18T19:56:48.742Z,98167.69
2023-01-18T19:59:15.417Z,98172.22
2023-01-18T20:01:42.325Z,98172.75
2023-01-18T20:04:09.674Z,98169.56
2023-01-18T20:06:39.933Z,98180.44
2023-01-18T20:09:15.796Z,98171.41
2023-01-18T20:11:44.812Z,98175.63
2023-01-18T20:14:11.917Z,98174.00
2023-01-18T20:16:39.142Z,98181.94
2023-01-18T20:19:05.761Z,98188.03
2023-01-18T20:21:32.333Z,98184.84
2023-01-18T20:23:59.007Z,98185.38
2023-01-18T20:26:35.861Z,98185.09
2023-01-18T20:29:07.076Z,98185.88
2023-01-18T20:31:35.972Z,98192.47
2023-01-18T20:34:03.191Z,98193.28
2023-01-18T20:36:29.904Z,98191.09
2023-01-18T20:38:57.238Z,98202.00
2023-01-18T20:41:23.807Z,98208.63
2023-01-18T20:43:50.393Z,98205.69
2023-01-18T20:46:17.051Z,98203.81
2023-01-18T20:48:44.014Z,98210.69
2023-01-18T20:51:10.622Z,98214.09
2023-01-18T20:53:39.922Z,98210.34
2023-01-18T20:56:27.199Z,98212.47
2023-01-18T20:58:55.398Z,98216.44
2023-01-18T21:01:22.118Z,98225.19
2023-01-18T21:03:55.516Z,98223.06
2023-01-18T21:06:22.112Z,98224.66
2023-01-18T21:08:52.532Z,98229.66
2023-01-18T21:11:22.886Z,98225.94
2023-01-18T21:13:50.264Z,98223.78
2023-01-18T21:16:16.993Z,98222.97
2023-01-18T21:18:43.937Z,98223.78
2023-01-18T21:21:10.557Z,98232.28
2023-01-18T21:23:39.905Z,98233.63
2023-01-18T21:26:11.291Z,98233.88
2023-01-18T21:28:38.193Z,98226.16
2023-01-18T21:31:05.505Z,98230.69
2023-01-18T21:33:33.216Z,98236.00
2023-01-18T21:36:07.713Z,98234.94
2023-01-18T21:38:34.807Z,98233.88
2023-01-18T21:41:21.430Z,98233.38
2023-01-18T21:44:06.548Z,98236.56
2023-01-18T21:46:33.145Z,98239.25
2023-01-18T21:49:06.838Z,98235.31
2023-01-18T21:51:52.938Z,98236.63
2023-01-18T21:54:21.469Z,98243.53
2023-01-18T21:56:48.008Z,98241.19
2023-01-18T21:59:14.914Z,98246.81
2023-01-18T22:01:44.394Z,98245.75
2023-01-18T22:04:33.939Z,98249.72
2023-01-18T22:07:01.494Z,98256.94
2023-01-18T22:09:29.796Z,98255.66
2023-01-18T22:11:57.467Z,98265.47
2023-01-18T22:14:25.193Z,98267.34
2023-01-18T22:16:51.896Z,98275.84
2023-01-18T22:19:21.311Z,98282.78
2023-01-18T22:21:49.410Z,98285.44
2023-01-18T22:24:17.275Z,98283.59
2023-01-18T22:26:45.244Z,98285.19
2023-01-18T22:29:12.424Z,98293.69
2023-01-18T22:31:39.526Z,98291.81
2023-01-18T22:34:07.483Z,98302.22
2023-01-18T22:36:34.445Z,98303.25
2023-01-18T22:39:01.214Z,98305.94
2023-01-18T22:41:28.963Z,98297.66
2023-01-18T22:43:56.083Z,98309.56
2023-01-18T22:46:24.057Z,98307.44
2023-01-18T22:48:51.245Z,98309.28
2023-01-18T22:51:22.222Z,98315.88
2023-01-18T22:53:49.575Z,98320.09
2023-01-18T22:56:21.605Z,98310.00
2023-01-18T22:58:49.091Z,98308.63
2023-01-18T23:01:25.210Z,98308.88
2023-01-18T23:03:54.832Z,98309.94
2023-01-18T23:06:22.141Z,98311.25
2023-01-18T23:08:49.490Z,98319.44
2023-01-18T23:11:25.163Z,98314.41
2023-01-18T23:14:14.992Z,98323.44
2023-01-18T23:17:00.890Z,98318.63
2023-01-18T23:19:29.630Z,98320.97
2023-01-18T23:21:57.329Z,98330.25
2023-01-18T23:24:24.065Z,98334.75
2023-01-18T23:26:51.314Z,98337.97
2023-01-18T23:29:18.379Z,98341.19
2023-01-18T23:31:45.066Z,98339.63
2023-01-18T23:34:11.681Z,98339.63
2023-01-18T23:36:38.359Z,98330.13
2023-01-18T23:39:23.457Z,98335.50
2023-01-18T23:42:08.470Z,98335.75
2023-01-18T23:44:53.868Z,98338.72
2023-01-18T23:47:39.123Z,98335.84
2023-01-18T23:50:24.563Z,98345.16
2023-01-18T23:53:09.808Z,98343.13
2023-01-18T23:55:36.383Z,98347.16
2023-01-18T23:58:03.251Z,98340.31
